sensor_id;sensor_type;location;lat;lon;timestamp;P1;durP1;ratioP1;P2;durP2;ratioP2
52650;SDS011;38537;47.226;39.702;2023-02-03T00:00:39;34.03;;;18.75;;
52650;SDS011;38537;47.226;39.702;2023-02-03T00:03:06;30.80;;;18.00;;
52650;SDS011;38537;47.226;39.702;2023-02-03T00:05:34;34.45;;;19.33;;
52650;SDS011;38537;47.226;39.702;2023-02-03T00:08:03;31.55;;;18.77;;
52650;SDS011;38537;47.226;39.702;2023-02-03T00:10:35;33.95;;;18.50;;
52650;SDS011;38537;47.226;39.702;2023-02-03T00:13:05;33.45;;;19.23;;
52650;SDS011;38537;47.226;39.702;2023-02-03T00:15:32;31.30;;;18.73;;
52650;SDS011;38537;47.226;39.702;2023-02-03T00:17:59;36.65;;;19.85;;
52650;SDS011;38537;47.226;39.702;2023-02-03T00:20:27;30.92;;;18.52;;
52650;SDS011;38537;47.226;39.702;2023-02-03T00:23:01;38.97;;;20.27;;
52650;SDS011;38537;47.226;39.702;2023-02-03T00:25:32;34.40;;;19.70;;
52650;SDS011;38537;47.226;39.702;2023-02-03T00:28:00;38.78;;;20.95;;
52650;SDS011;38537;47.226;39.702;2023-02-03T00:30:27;36.08;;;20.40;;
52650;SDS011;38537;47.226;39.702;2023-02-03T00:32:55;34.50;;;20.67;;
52650;SDS011;38537;47.226;39.702;2023-02-03T00:35:23;36.13;;;20.45;;
52650;SDS011;38537;47.226;39.702;2023-02-03T00:37:53;35.72;;;20.42;;
52650;SDS011;38537;47.226;39.702;2023-02-03T00:40:22;32.78;;;20.30;;
52650;SDS011;38537;47.226;39.702;2023-02-03T00:42:51;36.03;;;20.90;;
52650;SDS011;38537;47.226;39.702;2023-02-03T00:45:20;38.38;;;20.80;;
52650;SDS011;38537;47.226;39.702;2023-02-03T00:47:48;34.28;;;20.40;;
52650;SDS011;38537;47.226;39.702;2023-02-03T00:50:16;34.05;;;20.15;;
52650;SDS011;38537;47.226;39.702;2023-02-03T00:52:43;34.53;;;19.20;;
52650;SDS011;38537;47.226;39.702;2023-02-03T00:55:10;37.60;;;18.95;;
52650;SDS011;38537;47.226;39.702;2023-02-03T00:57:38;32.35;;;19.70;;
52650;SDS011;38537;47.226;39.702;2023-02-03T01:00:05;31.98;;;20.33;;
52650;SDS011;38537;47.226;39.702;2023-02-03T01:02:34;36.55;;;21.30;;
52650;SDS011;38537;47.226;39.702;2023-02-03T01:05:02;36.35;;;22.38;;
52650;SDS011;38537;47.226;39.702;2023-02-03T01:07:32;42.33;;;23.25;;
52650;SDS011;38537;47.226;39.702;2023-02-03T01:10:00;37.58;;;23.65;;
52650;SDS011;38537;47.226;39.702;2023-02-03T01:12:30;37.17;;;21.50;;
52650;SDS011;38537;47.226;39.702;2023-02-03T01:14:58;31.10;;;19.73;;
52650;SDS011;38537;47.226;39.702;2023-02-03T01:17:25;29.90;;;18.10;;
52650;SDS011;38537;47.226;39.702;2023-02-03T01:19:52;30.08;;;17.38;;
52650;SDS011;38537;47.226;39.702;2023-02-03T01:22:20;36.15;;;18.67;;
52650;SDS011;38537;47.226;39.702;2023-02-03T01:24:48;26.10;;;15.68;;
52650;SDS011;38537;47.226;39.702;2023-02-03T01:27:15;27.52;;;16.60;;
52650;SDS011;38537;47.226;39.702;2023-02-03T01:29:42;28.55;;;15.38;;
52650;SDS011;38537;47.226;39.702;2023-02-03T01:32:09;27.38;;;16.25;;
52650;SDS011;38537;47.226;39.702;2023-02-03T01:34:37;25.60;;;15.25;;
52650;SDS011;38537;47.226;39.702;2023-02-03T01:37:04;30.42;;;16.70;;
52650;SDS011;38537;47.226;39.702;2023-02-03T01:39:31;30.13;;;16.60;;
52650;SDS011;38537;47.226;39.702;2023-02-03T01:42:01;27.48;;;17.25;;
52650;SDS011;38537;47.226;39.702;2023-02-03T01:44:34;32.08;;;18.20;;
52650;SDS011;38537;47.226;39.702;2023-02-03T01:47:01;30.95;;;18.23;;
52650;SDS011;38537;47.226;39.702;2023-02-03T01:49:34;32.30;;;18.98;;
52650;SDS011;38537;47.226;39.702;2023-02-03T01:52:03;32.50;;;19.25;;
52650;SDS011;38537;47.226;39.702;2023-02-03T01:54:32;31.70;;;18.70;;
52650;SDS011;38537;47.226;39.702;2023-02-03T01:57:05;30.08;;;18.20;;
52650;SDS011;38537;47.226;39.702;2023-02-03T01:59:38;32.28;;;18.23;;
52650;SDS011;38537;47.226;39.702;2023-02-03T02:02:06;29.77;;;17.63;;
52650;SDS011;38537;47.226;39.702;2023-02-03T02:07:39;26.17;;;15.83;;
52650;SDS011;38537;47.226;39.702;2023-02-03T02:10:08;28.55;;;16.98;;
52650;SDS011;38537;47.226;39.702;2023-02-03T02:12:36;24.05;;;14.95;;
52650;SDS011;38537;47.226;39.702;2023-02-03T02:15:04;28.20;;;15.88;;
52650;SDS011;38537;47.226;39.702;2023-02-03T02:17:38;24.92;;;15.65;;
52650;SDS011;38537;47.226;39.702;2023-02-03T02:28:09;28.15;;;16.60;;
52650;SDS011;38537;47.226;39.702;2023-02-03T02:34:16;29.27;;;17.90;;
52650;SDS011;38537;47.226;39.702;2023-02-03T02:37:06;31.13;;;17.50;;
52650;SDS011;38537;47.226;39.702;2023-02-03T02:45:33;32.05;;;18.10;;
52650;SDS011;38537;47.226;39.702;2023-02-03T02:48:06;32.45;;;18.98;;
52650;SDS011;38537;47.226;39.702;2023-02-03T02:50:40;32.53;;;18.77;;
52650;SDS011;38537;47.226;39.702;2023-02-03T02:53:12;30.90;;;18.45;;
52650;SDS011;38537;47.226;39.702;2023-02-03T02:55:42;29.85;;;18.15;;
52650;SDS011;38537;47.226;39.702;2023-02-03T02:58:13;32.47;;;18.67;;
52650;SDS011;38537;47.226;39.702;2023-02-03T03:00:43;32.80;;;18.60;;
52650;SDS011;38537;47.226;39.702;2023-02-03T03:03:18;31.25;;;18.73;;
52650;SDS011;38537;47.226;39.702;2023-02-03T03:05:50;33.45;;;19.10;;
52650;SDS011;38537;47.226;39.702;2023-02-03T03:08:26;33.85;;;19.27;;
52650;SDS011;38537;47.226;39.702;2023-02-03T03:11:05;31.55;;;18.13;;
52650;SDS011;38537;47.226;39.702;2023-02-03T03:13:33;34.70;;;19.35;;
52650;SDS011;38537;47.226;39.702;2023-02-03T03:16:11;32.38;;;19.25;;
52650;SDS011;38537;47.226;39.702;2023-02-03T03:18:45;34.92;;;19.80;;
52650;SDS011;38537;47.226;39.702;2023-02-03T03:21:16;30.35;;;18.92;;
52650;SDS011;38537;47.226;39.702;2023-02-03T03:23:48;31.15;;;18.25;;
52650;SDS011;38537;47.226;39.702;2023-02-03T03:27:05;31.88;;;18.92;;
52650;SDS011;38537;47.226;39.702;2023-02-03T03:29:20;32.33;;;18.48;;
52650;SDS011;38537;47.226;39.702;2023-02-03T03:31:50;31.30;;;18.63;;
52650;SDS011;38537;47.226;39.702;2023-02-03T03:34:18;36.13;;;20.50;;
52650;SDS011;38537;47.226;39.702;2023-02-03T03:36:52;38.60;;;20.13;;
52650;SDS011;38537;47.226;39.702;2023-02-03T03:39:32;37.50;;;20.33;;
52650;SDS011;38537;47.226;39.702;2023-02-03T03:45:30;40.35;;;21.52;;
52650;SDS011;38537;47.226;39.702;2023-02-03T03:50:36;28.65;;;17.30;;
52650;SDS011;38537;47.226;39.702;2023-02-03T03:53:07;30.05;;;18.23;;
52650;SDS011;38537;47.226;39.702;2023-02-03T03:55:37;34.38;;;19.02;;
52650;SDS011;38537;47.226;39.702;2023-02-03T03:58:08;30.25;;;18.13;;
52650;SDS011;38537;47.226;39.702;2023-02-03T04:00:38;33.70;;;19.63;;
52650;SDS011;38537;47.226;39.702;2023-02-03T04:03:10;33.35;;;19.15;;
52650;SDS011;38537;47.226;39.702;2023-02-03T04:05:41;37.07;;;20.97;;
52650;SDS011;38537;47.226;39.702;2023-02-03T04:08:08;34.13;;;19.52;;
52650;SDS011;38537;47.226;39.702;2023-02-03T04:10:37;36.22;;;20.30;;
52650;SDS011;38537;47.226;39.702;2023-02-03T04:13:06;30.98;;;18.10;;
52650;SDS011;38537;47.226;39.702;2023-02-03T04:15:35;35.40;;;19.38;;
52650;SDS011;38537;47.226;39.702;2023-02-03T04:18:03;32.90;;;19.00;;
52650;SDS011;38537;47.226;39.702;2023-02-03T04:20:31;29.77;;;19.08;;
52650;SDS011;38537;47.226;39.702;2023-02-03T04:22:59;32.70;;;18.77;;
52650;SDS011;38537;47.226;39.702;2023-02-03T04:25:27;31.27;;;18.45;;
52650;SDS011;38537;47.226;39.702;2023-02-03T04:27:55;29.35;;;17.90;;
52650;SDS011;38537;47.226;39.702;2023-02-03T04:30:22;30.20;;;17.40;;
52650;SDS011;38537;47.226;39.702;2023-02-03T04:32:49;31.33;;;18.05;;
52650;SDS011;38537;47.226;39.702;2023-02-03T04:35:18;33.10;;;17.67;;
52650;SDS011;38537;47.226;39.702;2023-02-03T04:37:45;30.38;;;17.73;;
52650;SDS011;38537;47.226;39.702;2023-02-03T04:40:13;36.28;;;21.20;;
52650;SDS011;38537;47.226;39.702;2023-02-03T04:42:41;35.28;;;18.75;;
52650;SDS011;38537;47.226;39.702;2023-02-03T04:45:09;35.30;;;20.25;;
52650;SDS011;38537;47.226;39.702;2023-02-03T04:47:37;28.17;;;17.70;;
52650;SDS011;38537;47.226;39.702;2023-02-03T04:50:05;30.77;;;18.30;;
52650;SDS011;38537;47.226;39.702;2023-02-03T04:52:33;32.88;;;18.50;;
52650;SDS011;38537;47.226;39.702;2023-02-03T04:55:00;30.33;;;17.92;;
52650;SDS011;38537;47.226;39.702;2023-02-03T04:57:29;31.15;;;18.48;;
52650;SDS011;38537;47.226;39.702;2023-02-03T04:59:57;29.63;;;17.17;;
52650;SDS011;38537;47.226;39.702;2023-02-03T05:02:24;31.27;;;17.70;;
52650;SDS011;38537;47.226;39.702;2023-02-03T05:04:55;31.08;;;17.98;;
52650;SDS011;38537;47.226;39.702;2023-02-03T05:07:30;33.10;;;18.13;;
52650;SDS011;38537;47.226;39.702;2023-02-03T05:10:00;32.72;;;18.52;;
52650;SDS011;38537;47.226;39.702;2023-02-03T05:12:31;33.20;;;19.65;;
52650;SDS011;38537;47.226;39.702;2023-02-03T05:15:03;29.75;;;18.10;;
52650;SDS011;38537;47.226;39.702;2023-02-03T05:17:30;30.55;;;18.50;;
52650;SDS011;38537;47.226;39.702;2023-02-03T05:20:02;27.80;;;17.42;;
52650;SDS011;38537;47.226;39.702;2023-02-03T05:22:30;31.42;;;18.13;;
52650;SDS011;38537;47.226;39.702;2023-02-03T05:24:57;33.25;;;18.70;;
52650;SDS011;38537;47.226;39.702;2023-02-03T05:27:25;31.02;;;18.20;;
52650;SDS011;38537;47.226;39.702;2023-02-03T05:29:56;32.95;;;18.73;;
52650;SDS011;38537;47.226;39.702;2023-02-03T05:32:30;33.83;;;18.58;;
52650;SDS011;38537;47.226;39.702;2023-02-03T05:35:00;31.38;;;17.23;;
52650;SDS011;38537;47.226;39.702;2023-02-03T05:37:28;32.75;;;18.27;;
52650;SDS011;38537;47.226;39.702;2023-02-03T05:39:56;31.75;;;17.83;;
52650;SDS011;38537;47.226;39.702;2023-02-03T05:42:47;32.38;;;17.73;;
52650;SDS011;38537;47.226;39.702;2023-02-03T05:45:15;29.50;;;17.50;;
52650;SDS011;38537;47.226;39.702;2023-02-03T05:47:43;31.25;;;17.90;;
52650;SDS011;38537;47.226;39.702;2023-02-03T05:50:10;28.85;;;16.98;;
52650;SDS011;38537;47.226;39.702;2023-02-03T05:52:37;26.17;;;15.65;;
52650;SDS011;38537;47.226;39.702;2023-02-03T05:55:04;27.33;;;16.02;;
52650;SDS011;38537;47.226;39.702;2023-02-03T05:57:32;27.67;;;15.70;;
52650;SDS011;38537;47.226;39.702;2023-02-03T05:59:59;29.17;;;17.02;;
52650;SDS011;38537;47.226;39.702;2023-02-03T06:02:37;25.60;;;14.48;;
52650;SDS011;38537;47.226;39.702;2023-02-03T06:05:04;27.63;;;15.57;;
52650;SDS011;38537;47.226;39.702;2023-02-03T06:07:31;25.00;;;15.65;;
52650;SDS011;38537;47.226;39.702;2023-02-03T06:09:59;27.88;;;15.45;;
52650;SDS011;38537;47.226;39.702;2023-02-03T06:12:26;26.40;;;15.40;;
52650;SDS011;38537;47.226;39.702;2023-02-03T06:14:54;27.15;;;15.63;;
52650;SDS011;38537;47.226;39.702;2023-02-03T06:17:22;26.40;;;15.27;;
52650;SDS011;38537;47.226;39.702;2023-02-03T06:19:49;28.63;;;16.77;;
52650;SDS011;38537;47.226;39.702;2023-02-03T06:22:17;29.73;;;15.75;;
52650;SDS011;38537;47.226;39.702;2023-02-03T06:24:46;23.45;;;14.73;;
52650;SDS011;38537;47.226;39.702;2023-02-03T06:27:14;25.58;;;14.57;;
52650;SDS011;38537;47.226;39.702;2023-02-03T06:29:42;25.75;;;14.65;;
52650;SDS011;38537;47.226;39.702;2023-02-03T06:32:09;27.73;;;14.82;;
52650;SDS011;38537;47.226;39.702;2023-02-03T06:34:36;26.15;;;15.13;;
52650;SDS011;38537;47.226;39.702;2023-02-03T06:37:03;27.00;;;15.35;;
52650;SDS011;38537;47.226;39.702;2023-02-03T06:39:30;24.60;;;14.35;;
52650;SDS011;38537;47.226;39.702;2023-02-03T06:41:58;24.08;;;14.20;;
52650;SDS011;38537;47.226;39.702;2023-02-03T06:44:25;22.42;;;13.48;;
52650;SDS011;38537;47.226;39.702;2023-02-03T06:46:52;22.77;;;14.05;;
52650;SDS011;38537;47.226;39.702;2023-02-03T06:49:20;24.98;;;13.95;;
52650;SDS011;38537;47.226;39.702;2023-02-03T06:51:47;23.52;;;13.73;;
52650;SDS011;38537;47.226;39.702;2023-02-03T06:54:15;24.52;;;14.07;;
52650;SDS011;38537;47.226;39.702;2023-02-03T06:56:42;26.48;;;14.45;;
52650;SDS011;38537;47.226;39.702;2023-02-03T06:59:09;21.92;;;13.35;;
52650;SDS011;38537;47.226;39.702;2023-02-03T07:01:36;24.40;;;13.80;;
52650;SDS011;38537;47.226;39.702;2023-02-03T07:04:04;24.13;;;14.02;;
52650;SDS011;38537;47.226;39.702;2023-02-03T07:06:32;25.13;;;13.63;;
52650;SDS011;38537;47.226;39.702;2023-02-03T07:09:00;25.98;;;13.93;;
52650;SDS011;38537;47.226;39.702;2023-02-03T07:11:30;25.42;;;14.15;;
52650;SDS011;38537;47.226;39.702;2023-02-03T07:13:58;30.67;;;14.32;;
52650;SDS011;38537;47.226;39.702;2023-02-03T07:16:25;26.13;;;13.93;;
52650;SDS011;38537;47.226;39.702;2023-02-03T07:18:53;23.55;;;12.85;;
52650;SDS011;38537;47.226;39.702;2023-02-03T07:21:24;23.67;;;13.38;;
52650;SDS011;38537;47.226;39.702;2023-02-03T07:23:52;20.63;;;12.40;;
52650;SDS011;38537;47.226;39.702;2023-02-03T07:26:19;21.17;;;12.88;;
52650;SDS011;38537;47.226;39.702;2023-02-03T07:28:48;19.10;;;10.98;;
52650;SDS011;38537;47.226;39.702;2023-02-03T07:31:15;23.40;;;13.38;;
52650;SDS011;38537;47.226;39.702;2023-02-03T07:33:43;22.38;;;12.73;;
52650;SDS011;38537;47.226;39.702;2023-02-03T07:36:11;22.15;;;12.98;;
52650;SDS011;38537;47.226;39.702;2023-02-03T07:38:39;22.80;;;13.80;;
52650;SDS011;38537;47.226;39.702;2023-02-03T07:41:07;21.38;;;12.85;;
52650;SDS011;38537;47.226;39.702;2023-02-03T07:43:35;25.98;;;14.13;;
52650;SDS011;38537;47.226;39.702;2023-02-03T07:46:02;28.13;;;14.85;;
52650;SDS011;38537;47.226;39.702;2023-02-03T07:48:30;24.92;;;14.82;;
52650;SDS011;38537;47.226;39.702;2023-02-03T07:51:00;25.52;;;14.20;;
52650;SDS011;38537;47.226;39.702;2023-02-03T07:53:27;26.00;;;14.57;;
52650;SDS011;38537;47.226;39.702;2023-02-03T07:56:01;22.92;;;13.43;;
52650;SDS011;38537;47.226;39.702;2023-02-03T07:58:33;25.88;;;14.45;;
52650;SDS011;38537;47.226;39.702;2023-02-03T08:01:00;23.25;;;14.23;;
52650;SDS011;38537;47.226;39.702;2023-02-03T08:03:28;20.80;;;13.32;;
52650;SDS011;38537;47.226;39.702;2023-02-03T08:05:55;27.05;;;15.00;;
52650;SDS011;38537;47.226;39.702;2023-02-03T08:08:23;27.25;;;14.82;;
52650;SDS011;38537;47.226;39.702;2023-02-03T08:10:50;27.73;;;15.10;;
52650;SDS011;38537;47.226;39.702;2023-02-03T08:13:18;28.55;;;15.40;;
52650;SDS011;38537;47.226;39.702;2023-02-03T08:15:45;27.10;;;14.60;;
52650;SDS011;38537;47.226;39.702;2023-02-03T08:18:13;28.60;;;15.63;;
52650;SDS011;38537;47.226;39.702;2023-02-03T08:20:41;26.42;;;15.23;;
52650;SDS011;38537;47.226;39.702;2023-02-03T08:23:09;30.05;;;15.77;;
52650;SDS011;38537;47.226;39.702;2023-02-03T08:25:36;26.20;;;14.43;;
52650;SDS011;38537;47.226;39.702;2023-02-03T08:28:03;25.40;;;14.77;;
52650;SDS011;38537;47.226;39.702;2023-02-03T08:30:30;27.77;;;14.93;;
52650;SDS011;38537;47.226;39.702;2023-02-03T08:32:58;30.67;;;16.50;;
52650;SDS011;38537;47.226;39.702;2023-02-03T08:35:25;26.75;;;15.68;;
52650;SDS011;38537;47.226;39.702;2023-02-03T08:37:54;31.80;;;16.38;;
52650;SDS011;38537;47.226;39.702;2023-02-03T08:40:21;28.13;;;15.82;;
52650;SDS011;38537;47.226;39.702;2023-02-03T08:42:49;29.60;;;17.30;;
52650;SDS011;38537;47.226;39.702;2023-02-03T08:45:16;29.52;;;15.73;;
52650;SDS011;38537;47.226;39.702;2023-02-03T08:47:43;25.67;;;15.55;;
52650;SDS011;38537;47.226;39.702;2023-02-03T08:50:10;29.67;;;16.73;;
52650;SDS011;38537;47.226;39.702;2023-02-03T08:52:41;28.77;;;15.20;;
52650;SDS011;38537;47.226;39.702;2023-02-03T08:55:08;27.05;;;15.70;;
52650;SDS011;38537;47.226;39.702;2023-02-03T08:57:35;26.73;;;15.75;;
52650;SDS011;38537;47.226;39.702;2023-02-03T09:00:07;26.58;;;15.90;;
52650;SDS011;38537;47.226;39.702;2023-02-03T09:02:36;27.40;;;16.02;;
52650;SDS011;38537;47.226;39.702;2023-02-03T09:05:03;23.65;;;15.00;;
52650;SDS011;38537;47.226;39.702;2023-02-03T09:07:30;24.90;;;14.63;;
52650;SDS011;38537;47.226;39.702;2023-02-03T09:09:57;18.98;;;12.68;;
52650;SDS011;38537;47.226;39.702;2023-02-03T09:12:24;31.20;;;16.70;;
52650;SDS011;38537;47.226;39.702;2023-02-03T09:14:52;25.63;;;16.23;;
52650;SDS011;38537;47.226;39.702;2023-02-03T09:17:20;27.33;;;15.63;;
52650;SDS011;38537;47.226;39.702;2023-02-03T09:19:47;28.42;;;15.52;;
52650;SDS011;38537;47.226;39.702;2023-02-03T09:22:15;29.25;;;15.82;;
52650;SDS011;38537;47.226;39.702;2023-02-03T09:24:42;25.73;;;15.38;;
52650;SDS011;38537;47.226;39.702;2023-02-03T09:27:09;29.90;;;16.98;;
52650;SDS011;38537;47.226;39.702;2023-02-03T09:29:37;28.63;;;16.70;;
52650;SDS011;38537;47.226;39.702;2023-02-03T09:32:04;29.25;;;16.42;;
52650;SDS011;38537;47.226;39.702;2023-02-03T09:34:35;27.15;;;16.60;;
52650;SDS011;38537;47.226;39.702;2023-02-03T09:37:03;29.92;;;17.10;;
52650;SDS011;38537;47.226;39.702;2023-02-03T09:39:30;30.95;;;16.77;;
52650;SDS011;38537;47.226;39.702;2023-02-03T09:47:40;29.23;;;17.15;;
52650;SDS011;38537;47.226;39.702;2023-02-03T09:50:19;32.45;;;17.38;;
52650;SDS011;38537;47.226;39.702;2023-02-03T09:52:48;30.95;;;15.68;;
52650;SDS011;38537;47.226;39.702;2023-02-03T09:58:07;33.42;;;17.02;;
52650;SDS011;38537;47.226;39.702;2023-02-03T10:06:11;30.50;;;15.95;;
52650;SDS011;38537;47.226;39.702;2023-02-03T10:22:33;27.23;;;15.73;;
52650;SDS011;38537;47.226;39.702;2023-02-03T10:25:07;27.52;;;15.50;;
52650;SDS011;38537;47.226;39.702;2023-02-03T10:27:46;32.83;;;16.95;;
52650;SDS011;38537;47.226;39.702;2023-02-03T10:32:47;32.85;;;17.50;;
52650;SDS011;38537;47.226;39.702;2023-02-03T10:35:16;28.63;;;15.75;;
52650;SDS011;38537;47.226;39.702;2023-02-03T10:37:49;28.88;;;15.68;;
52650;SDS011;38537;47.226;39.702;2023-02-03T10:40:19;21.50;;;13.35;;
52650;SDS011;38537;47.226;39.702;2023-02-03T10:42:51;31.63;;;16.23;;
52650;SDS011;38537;47.226;39.702;2023-02-03T10:45:39;27.27;;;14.63;;
52650;SDS011;38537;47.226;39.702;2023-02-03T10:48:10;25.45;;;15.57;;
52650;SDS011;38537;47.226;39.702;2023-02-03T10:50:43;35.53;;;18.00;;
52650;SDS011;38537;47.226;39.702;2023-02-03T10:55:44;28.13;;;15.90;;
52650;SDS011;38537;47.226;39.702;2023-02-03T10:58:15;28.75;;;16.92;;
52650;SDS011;38537;47.226;39.702;2023-02-03T11:00:49;28.75;;;15.82;;
52650;SDS011;38537;47.226;39.702;2023-02-03T11:03:30;30.45;;;15.98;;
52650;SDS011;38537;47.226;39.702;2023-02-03T11:06:15;19.52;;;11.93;;
52650;SDS011;38537;47.226;39.702;2023-02-03T11:08:44;24.52;;;13.32;;
52650;SDS011;38537;47.226;39.702;2023-02-03T11:11:23;22.83;;;14.27;;
52650;SDS011;38537;47.226;39.702;2023-02-03T11:16:33;26.23;;;14.90;;
52650;SDS011;38537;47.226;39.702;2023-02-03T11:19:26;29.02;;;15.85;;
52650;SDS011;38537;47.226;39.702;2023-02-03T11:21:52;27.88;;;14.85;;
52650;SDS011;38537;47.226;39.702;2023-02-03T11:29:26;31.40;;;16.75;;
52650;SDS011;38537;47.226;39.702;2023-02-03T11:31:56;31.92;;;16.42;;
52650;SDS011;38537;47.226;39.702;2023-02-03T11:34:27;27.27;;;15.07;;
52650;SDS011;38537;47.226;39.702;2023-02-03T11:42:34;31.02;;;17.25;;
52650;SDS011;38537;47.226;39.702;2023-02-03T11:47:45;31.10;;;16.50;;
52650;SDS011;38537;47.226;39.702;2023-02-03T11:56:02;30.35;;;16.50;;
52650;SDS011;38537;47.226;39.702;2023-02-03T12:07:03;29.65;;;16.08;;
52650;SDS011;38537;47.226;39.702;2023-02-03T12:12:20;33.45;;;16.38;;
52650;SDS011;38537;47.226;39.702;2023-02-03T12:28:51;32.28;;;14.50;;
52650;SDS011;38537;47.226;39.702;2023-02-03T12:31:24;24.23;;;13.43;;
52650;SDS011;38537;47.226;39.702;2023-02-03T12:33:57;29.17;;;13.50;;
52650;SDS011;38537;47.226;39.702;2023-02-03T12:36:28;31.70;;;14.27;;
52650;SDS011;38537;47.226;39.702;2023-02-03T12:39:02;28.40;;;14.05;;
52650;SDS011;38537;47.226;39.702;2023-02-03T12:41:39;24.98;;;12.73;;
52650;SDS011;38537;47.226;39.702;2023-02-03T12:44:25;26.67;;;13.50;;
52650;SDS011;38537;47.226;39.702;2023-02-03T12:49:36;32.22;;;13.38;;
52650;SDS011;38537;47.226;39.702;2023-02-03T12:52:16;25.60;;;12.07;;
52650;SDS011;38537;47.226;39.702;2023-02-03T12:54:54;22.45;;;11.68;;
52650;SDS011;38537;47.226;39.702;2023-02-03T12:57:31;23.65;;;12.73;;
52650;SDS011;38537;47.226;39.702;2023-02-03T13:08:31;19.25;;;11.93;;
52650;SDS011;38537;47.226;39.702;2023-02-03T13:14:06;24.77;;;12.88;;
52650;SDS011;38537;47.226;39.702;2023-02-03T13:16:42;20.88;;;12.65;;
52650;SDS011;38537;47.226;39.702;2023-02-03T13:19:16;23.38;;;12.02;;
52650;SDS011;38537;47.226;39.702;2023-02-03T13:21:47;26.67;;;13.10;;
52650;SDS011;38537;47.226;39.702;2023-02-03T13:24:15;21.00;;;12.10;;
52650;SDS011;38537;47.226;39.702;2023-02-03T13:43:11;22.83;;;13.02;;
52650;SDS011;38537;47.226;39.702;2023-02-03T13:46:02;17.77;;;11.32;;
52650;SDS011;38537;47.226;39.702;2023-02-03T13:48:34;25.38;;;12.93;;
52650;SDS011;38537;47.226;39.702;2023-02-03T13:51:06;23.80;;;12.82;;
52650;SDS011;38537;47.226;39.702;2023-02-03T13:53:40;21.08;;;13.00;;
52650;SDS011;38537;47.226;39.702;2023-02-03T13:56:18;23.38;;;13.10;;
52650;SDS011;38537;47.226;39.702;2023-02-03T13:59:18;21.95;;;12.30;;
52650;SDS011;38537;47.226;39.702;2023-02-03T14:16:41;20.15;;;11.65;;
52650;SDS011;38537;47.226;39.702;2023-02-03T14:22:01;18.35;;;11.57;;
52650;SDS011;38537;47.226;39.702;2023-02-03T14:29:42;19.98;;;11.38;;
52650;SDS011;38537;47.226;39.702;2023-02-03T14:32:10;16.88;;;10.95;;
52650;SDS011;38537;47.226;39.702;2023-02-03T14:34:42;20.90;;;12.00;;
52650;SDS011;38537;47.226;39.702;2023-02-03T14:48:47;17.75;;;10.05;;
52650;SDS011;38537;47.226;39.702;2023-02-03T14:59:48;20.35;;;10.90;;
52650;SDS011;38537;47.226;39.702;2023-02-03T15:02:31;15.40;;;9.35;;
52650;SDS011;38537;47.226;39.702;2023-02-03T15:07:46;19.02;;;11.80;;
52650;SDS011;38537;47.226;39.702;2023-02-03T15:10:30;16.48;;;9.65;;
52650;SDS011;38537;47.226;39.702;2023-02-03T15:13:22;16.33;;;10.02;;
52650;SDS011;38537;47.226;39.702;2023-02-03T15:15:59;18.02;;;11.05;;
52650;SDS011;38537;47.226;39.702;2023-02-03T15:18:31;18.33;;;11.05;;
52650;SDS011;38537;47.226;39.702;2023-02-03T15:21:02;16.95;;;10.57;;
52650;SDS011;38537;47.226;39.702;2023-02-03T15:23:35;13.98;;;9.27;;
52650;SDS011;38537;47.226;39.702;2023-02-03T15:26:15;17.90;;;10.65;;
52650;SDS011;38537;47.226;39.702;2023-02-03T15:28:57;16.50;;;10.27;;
52650;SDS011;38537;47.226;39.702;2023-02-03T15:31:28;17.80;;;10.82;;
52650;SDS011;38537;47.226;39.702;2023-02-03T15:34:17;19.27;;;9.73;;
52650;SDS011;38537;47.226;39.702;2023-02-03T15:36:56;14.20;;;8.85;;
52650;SDS011;38537;47.226;39.702;2023-02-03T15:39:42;18.48;;;8.90;;
52650;SDS011;38537;47.226;39.702;2023-02-03T15:42:20;17.52;;;10.30;;
52650;SDS011;38537;47.226;39.702;2023-02-03T15:47:53;17.00;;;9.82;;
52650;SDS011;38537;47.226;39.702;2023-02-03T15:50:41;16.50;;;9.25;;
52650;SDS011;38537;47.226;39.702;2023-02-03T15:53:15;12.82;;;7.80;;
52650;SDS011;38537;47.226;39.702;2023-02-03T15:55:53;18.00;;;9.68;;
52650;SDS011;38537;47.226;39.702;2023-02-03T15:58:25;15.15;;;9.70;;
52650;SDS011;38537;47.226;39.702;2023-02-03T16:00:55;13.20;;;8.77;;
52650;SDS011;38537;47.226;39.702;2023-02-03T16:09:06;13.18;;;8.43;;
52650;SDS011;38537;47.226;39.702;2023-02-03T16:12:00;13.43;;;8.60;;
52650;SDS011;38537;47.226;39.702;2023-02-03T16:14:33;10.80;;;7.43;;
52650;SDS011;38537;47.226;39.702;2023-02-03T16:17:02;11.50;;;8.00;;
52650;SDS011;38537;47.226;39.702;2023-02-03T16:19:32;11.85;;;7.95;;
52650;SDS011;38537;47.226;39.702;2023-02-03T16:22:04;13.35;;;8.95;;
52650;SDS011;38537;47.226;39.702;2023-02-03T16:24:51;13.95;;;9.32;;
52650;SDS011;38537;47.226;39.702;2023-02-03T16:29:52;16.35;;;9.25;;
52650;SDS011;38537;47.226;39.702;2023-02-03T16:32:38;13.32;;;8.57;;
52650;SDS011;38537;47.226;39.702;2023-02-03T16:35:24;10.63;;;7.50;;
52650;SDS011;38537;47.226;39.702;2023-02-03T16:38:14;11.55;;;8.00;;
52650;SDS011;38537;47.226;39.702;2023-02-03T16:41:01;14.85;;;9.30;;
52650;SDS011;38537;47.226;39.702;2023-02-03T16:46:45;15.55;;;9.48;;
52650;SDS011;38537;47.226;39.702;2023-02-03T16:49:32;13.57;;;8.63;;
52650;SDS011;38537;47.226;39.702;2023-02-03T16:52:18;14.57;;;9.88;;
52650;SDS011;38537;47.226;39.702;2023-02-03T16:54:45;15.65;;;10.13;;
52650;SDS011;38537;47.226;39.702;2023-02-03T16:57:12;15.63;;;9.75;;
52650;SDS011;38537;47.226;39.702;2023-02-03T16:59:40;13.38;;;9.25;;
52650;SDS011;38537;47.226;39.702;2023-02-03T17:02:08;14.40;;;9.15;;
52650;SDS011;38537;47.226;39.702;2023-02-03T17:04:37;12.38;;;8.55;;
52650;SDS011;38537;47.226;39.702;2023-02-03T17:07:05;14.02;;;8.88;;
52650;SDS011;38537;47.226;39.702;2023-02-03T17:09:32;11.90;;;7.75;;
52650;SDS011;38537;47.226;39.702;2023-02-03T17:12:01;13.48;;;9.80;;
52650;SDS011;38537;47.226;39.702;2023-02-03T17:14:31;15.38;;;9.07;;
52650;SDS011;38537;47.226;39.702;2023-02-03T17:17:11;11.25;;;7.68;;
52650;SDS011;38537;47.226;39.702;2023-02-03T17:19:39;13.35;;;8.52;;
52650;SDS011;38537;47.226;39.702;2023-02-03T17:22:06;10.25;;;7.93;;
52650;SDS011;38537;47.226;39.702;2023-02-03T17:24:34;13.90;;;9.00;;
52650;SDS011;38537;47.226;39.702;2023-02-03T17:27:01;11.90;;;8.45;;
52650;SDS011;38537;47.226;39.702;2023-02-03T17:29:29;12.60;;;8.95;;
52650;SDS011;38537;47.226;39.702;2023-02-03T17:31:56;11.65;;;8.40;;
52650;SDS011;38537;47.226;39.702;2023-02-03T17:34:23;11.00;;;7.82;;
52650;SDS011;38537;47.226;39.702;2023-02-03T17:36:53;12.15;;;8.45;;
52650;SDS011;38537;47.226;39.702;2023-02-03T17:39:21;11.70;;;7.90;;
52650;SDS011;38537;47.226;39.702;2023-02-03T17:42:06;10.93;;;7.93;;
52650;SDS011;38537;47.226;39.702;2023-02-03T17:44:50;11.90;;;7.85;;
52650;SDS011;38537;47.226;39.702;2023-02-03T17:47:36;10.85;;;7.45;;
52650;SDS011;38537;47.226;39.702;2023-02-03T17:50:20;11.02;;;7.95;;